Página principal
METAR-TAF:

METAR-TAF

Aeroportos :

Linguère, Senegal

latitude: 15-23N, longitude: 015-07W, altura: 20 m

Observação actual do tempo

O boletim foi feito há 1 hora e 50 minutos, às 12:00 UTC
Vento 4 kt de oeste
Temperatura 32°C
Humidade 71%
Pressão 1009 hPa
Visibilidade 10 km ou mais
Nuvens fragmentadasa uma altura de 1500 ft

METAR: GOOG 071200Z 28004KT 9999 BKN015 32/26 Q1009

Hora: 13:50 (13:50 UTC)


TAF: em falta

Observações e previsões do tempo de mais de 4000 aeroportos (mensagens METAR e TAF).

As estações disponíveis são os pontos amarelos e vermelhos sobre o mapa.

Mova o rato sobre o mapa para ver o nome da estação.

Depois clique no ponto para visualizar as observações e previsões meteorológicas.

Para alterar o mapa : clique nos botões verdes com uma cruz preta para aumentar o zoom; no botão verde com uma pitada de zoom; ou nas setas verdes para mapas adjacentes.


METAR-TAF: